Time;durP1;ratioP1;P1;durP2;ratioP2;P2;SDS_P1;SDS_P2;PMS_P1;PMS_P2;Temp;Humidity;BMP_temperature;BMP_pressure;BME280_temperature;BME280_humidity;BME280_pressure;Samples;Min_cycle;Max_cycle;Signal;HPM_P1;HPM_P2
2023/10/24 00:00:36;;;;;;;8.30;7.57;;;;;;;;;;4985579;28;20213;-74
2023/10/24 00:03:03;;;;;;;8.10;7.50;;;;;;;;;;4983887;28;20221;-74
2023/10/24 00:05:34;;;;;;;8.33;7.53;;;;;;;;;;5000803;28;20695;-74
2023/10/24 00:08:04;;;;;;;7.77;7.13;;;;;;;;;;5001165;28;20225;-74
2023/10/24 00:10:32;;;;;;;8.67;7.87;;;;;;;;;;4999076;28;20231;-73
2023/10/24 00:12:58;;;;;;;8.17;7.50;;;;;;;;;;4983270;28;20718;-73
2023/10/24 00:15:26;;;;;;;8.40;7.70;;;;;;;;;;4998032;28;20239;-74
2023/10/24 00:17:54;;;;;;;7.97;7.37;;;;;;;;;;4985829;28;20230;-74
2023/10/24 00:20:21;;;;;;;8.00;7.17;;;;;;;;;;4997490;28;20239;-73
2023/10/24 00:22:47;;;;;;;8.80;7.90;;;;;;;;;;5002532;28;20659;-75
2023/10/24 00:25:15;;;;;;;9.20;8.40;;;;;;;;;;4997085;28;20212;-74
2023/10/24 00:27:42;;;;;;;8.53;7.83;;;;;;;;;;5004181;28;20228;-73
2023/10/24 00:30:08;;;;;;;10.27;8.87;;;;;;;;;;4959711;28;20650;-74
2023/10/24 00:32:34;;;;;;;15.50;8.20;;;;;;;;;;4996948;28;20240;-74
2023/10/24 00:35:02;;;;;;;9.33;8.23;;;;;;;;;;4988384;28;20284;-73
2023/10/24 00:37:28;;;;;;;8.27;7.57;;;;;;;;;;4970099;28;20221;-73
2023/10/24 00:39:54;;;;;;;9.20;8.40;;;;;;;;;;4985265;28;20225;-74
2023/10/24 00:42:19;;;;;;;9.10;8.27;;;;;;;;;;4998061;28;20216;-74
2023/10/24 00:44:45;;;;;;;10.50;8.70;;;;;;;;;;5001620;28;20660;-74
2023/10/24 00:47:13;;;;;;;11.03;8.60;;;;;;;;;;4999703;28;21524;-74
2023/10/24 00:49:44;;;;;;;9.03;8.13;;;;;;;;;;4993674;28;20253;-73
2023/10/24 00:52:12;;;;;;;10.10;9.20;;;;;;;;;;5009322;28;20255;-74
2023/10/24 00:54:40;;;;;;;9.43;8.67;;;;;;;;;;4986538;28;20236;-74
2023/10/24 00:57:12;;;;;;;9.57;8.67;;;;;;;;;;4959320;28;20829;-74
2023/10/24 00:59:37;;;;;;;9.10;8.40;;;;;;;;;;4971330;28;20311;-72
2023/10/24 01:02:03;;;;;;;9.53;8.73;;;;;;;;;;4970399;28;20364;-74
2023/10/24 01:04:29;;;;;;;9.80;8.20;;;;;;;;;;4971764;28;20216;-73
2023/10/24 01:07:00;;;;;;;9.70;8.90;;;;;;;;;;4990418;28;20233;-73
2023/10/24 01:09:26;;;;;;;9.97;9.07;;;;;;;;;;4954190;28;20228;-73
2023/10/24 01:11:53;;;;;;;9.90;9.10;;;;;;;;;;4987155;28;20895;-73
2023/10/24 01:14:18;;;;;;;9.97;9.27;;;;;;;;;;4976257;28;20319;-73
2023/10/24 01:16:46;;;;;;;12.30;9.30;;;;;;;;;;5003919;28;20302;-74
2023/10/24 01:19:14;;;;;;;9.50;8.53;;;;;;;;;;4984075;28;20221;-75
2023/10/24 01:21:45;;;;;;;10.50;9.40;;;;;;;;;;5008899;28;20218;-75
2023/10/24 01:24:12;;;;;;;10.03;9.10;;;;;;;;;;4987009;28;20218;-75
2023/10/24 01:26:41;;;;;;;14.83;10.00;;;;;;;;;;4967349;28;20251;-74
2023/10/24 01:29:08;;;;;;;9.43;8.63;;;;;;;;;;4997651;28;20694;-74
2023/10/24 01:31:39;;;;;;;10.73;9.83;;;;;;;;;;4986222;28;20237;-75
2023/10/24 01:34:04;;;;;;;10.67;9.77;;;;;;;;;;4992119;28;20218;-74
2023/10/24 01:36:32;;;;;;;9.87;9.07;;;;;;;;;;4967802;28;20770;-74
2023/10/24 01:39:00;;;;;;;10.43;9.53;;;;;;;;;;4986917;28;20283;-74
2023/10/24 01:41:26;;;;;;;9.57;8.77;;;;;;;;;;5004561;28;20248;-74
2023/10/24 01:43:55;;;;;;;9.77;8.83;;;;;;;;;;5006950;28;20233;-74
2023/10/24 01:46:27;;;;;;;10.00;9.00;;;;;;;;;;5002697;28;20287;-74
2023/10/24 01:48:55;;;;;;;9.27;8.50;;;;;;;;;;5009088;28;20220;-74
2023/10/24 01:51:21;;;;;;;9.97;9.10;;;;;;;;;;4996459;28;20244;-73
2023/10/24 01:53:46;;;;;;;9.80;8.90;;;;;;;;;;4998541;28;20237;-74
2023/10/24 01:56:17;;;;;;;9.77;8.87;;;;;;;;;;4969332;28;20224;-74
2023/10/24 01:58:42;;;;;;;11.17;9.03;;;;;;;;;;4971163;28;20221;-74
2023/10/24 02:01:14;;;;;;;10.27;9.27;;;;;;;;;;4954922;28;20707;-74
2023/10/24 02:03:42;;;;;;;11.17;10.00;;;;;;;;;;4976607;28;20686;-74
2023/10/24 02:06:10;;;;;;;10.40;9.33;;;;;;;;;;4983549;28;20695;-75
2023/10/24 02:08:40;;;;;;;10.33;9.40;;;;;;;;;;4970259;28;20721;-74
2023/10/24 02:11:07;;;;;;;10.10;9.27;;;;;;;;;;4992016;28;20217;-74
2023/10/24 02:13:33;;;;;;;11.80;10.40;;;;;;;;;;4982327;28;20216;-74
2023/10/24 02:15:59;;;;;;;11.53;10.40;;;;;;;;;;4958410;28;20221;-74
2023/10/24 02:18:25;;;;;;;10.90;10.03;;;;;;;;;;4991852;28;20272;-75
2023/10/24 02:20:53;;;;;;;11.30;10.47;;;;;;;;;;4991079;28;20256;-75
2023/10/24 02:23:23;;;;;;;11.83;10.73;;;;;;;;;;4995080;28;20629;-74
2023/10/24 02:25:53;;;;;;;12.73;11.63;;;;;;;;;;4988968;28;20258;-74
2023/10/24 02:28:24;;;;;;;12.77;11.67;;;;;;;;;;4998710;28;20249;-75
2023/10/24 02:30:52;;;;;;;12.20;10.80;;;;;;;;;;4970275;28;20232;-74
2023/10/24 02:33:19;;;;;;;12.63;11.43;;;;;;;;;;4967395;28;20233;-74
2023/10/24 02:35:50;;;;;;;12.10;11.13;;;;;;;;;;4972697;28;20611;-74
2023/10/24 02:38:17;;;;;;;14.10;12.60;;;;;;;;;;5000302;28;20286;-74
2023/10/24 02:40:55;;;;;;;13.47;12.30;;;;;;;;;;4990143;28;20599;-74
2023/10/24 02:43:23;;;;;;;13.37;12.20;;;;;;;;;;4990191;28;20220;-74
2023/10/24 02:45:51;;;;;;;14.37;13.07;;;;;;;;;;4973385;28;20229;-74
2023/10/24 02:48:18;;;;;;;14.10;12.70;;;;;;;;;;4969161;28;20229;-75
2023/10/24 02:50:44;;;;;;;14.37;13.17;;;;;;;;;;4989361;28;20323;-75
2023/10/24 02:53:12;;;;;;;15.13;13.07;;;;;;;;;;4999013;28;20229;-75
2023/10/24 02:55:40;;;;;;;14.10;13.00;;;;;;;;;;4990083;28;20232;-74
2023/10/24 02:58:08;;;;;;;15.43;14.00;;;;;;;;;;4983521;28;20221;-75
2023/10/24 03:00:36;;;;;;;15.13;13.63;;;;;;;;;;4990434;28;20588;-74
2023/10/24 03:03:06;;;;;;;14.63;13.33;;;;;;;;;;4983170;28;20224;-75
2023/10/24 03:05:31;;;;;;;16.10;13.93;;;;;;;;;;4999763;28;20228;-76
2023/10/24 03:07:57;;;;;;;15.53;14.13;;;;;;;;;;4971721;28;20233;-75
2023/10/24 03:10:25;;;;;;;15.20;13.93;;;;;;;;;;5001151;28;20224;-74
2023/10/24 03:12:56;;;;;;;17.43;15.73;;;;;;;;;;4970861;28;20233;-75
2023/10/24 03:15:21;;;;;;;16.87;15.30;;;;;;;;;;4967186;28;20217;-74
2023/10/24 03:17:49;;;;;;;16.73;15.17;;;;;;;;;;4970595;28;20236;-75
2023/10/24 03:20:17;;;;;;;17.00;15.20;;;;;;;;;;4970218;28;20271;-74
2023/10/24 03:22:42;;;;;;;17.73;16.13;;;;;;;;;;4997401;28;20311;-75
2023/10/24 03:25:10;;;;;;;18.40;16.63;;;;;;;;;;4982270;28;20220;-75
2023/10/24 03:27:38;;;;;;;17.93;16.33;;;;;;;;;;5005470;28;20255;-75
2023/10/24 03:30:07;;;;;;;17.73;16.30;;;;;;;;;;5004448;28;20233;-75
2023/10/24 03:32:35;;;;;;;18.30;16.50;;;;;;;;;;4982195;28;20599;-75
2023/10/24 03:35:01;;;;;;;20.10;18.13;;;;;;;;;;5016029;28;20225;-74
2023/10/24 03:37:31;;;;;;;19.00;17.33;;;;;;;;;;4966116;28;20225;-74
2023/10/24 03:39:56;;;;;;;19.93;18.13;;;;;;;;;;4986942;28;20220;-75
2023/10/24 03:42:24;;;;;;;19.40;17.67;;;;;;;;;;4970968;28;20228;-74
2023/10/24 03:44:54;;;;;;;19.77;17.90;;;;;;;;;;4989081;28;20312;-74
2023/10/24 03:47:22;;;;;;;18.97;17.17;;;;;;;;;;5001855;28;20212;-74
2023/10/24 03:49:48;;;;;;;20.57;18.57;;;;;;;;;;5000012;28;20225;-73
2023/10/24 03:52:16;;;;;;;18.73;17.07;;;;;;;;;;4992994;28;20224;-74
2023/10/24 03:54:41;;;;;;;19.03;17.27;;;;;;;;;;4996514;28;20721;-75
2023/10/24 03:57:09;;;;;;;19.33;17.40;;;;;;;;;;4990920;28;20235;-74
2023/10/24 04:03:35;;;;;;;19.63;17.77;;;;;;;;;;4996915;28;20221;-74
2023/10/24 04:06:01;;;;;;;19.77;17.97;;;;;;;;;;4969030;28;20737;-74
2023/10/24 04:08:26;;;;;;;19.07;17.17;;;;;;;;;;4997334;28;20293;-73
2023/10/24 04:10:56;;;;;;;17.97;16.33;;;;;;;;;;4969616;28;20730;-73
2023/10/24 04:13:22;;;;;;;18.80;17.07;;;;;;;;;;4984484;28;20237;-73
2023/10/24 04:15:51;;;;;;;19.23;16.20;;;;;;;;;;4994496;28;20283;-74
2023/10/24 04:18:23;;;;;;;18.83;17.13;;;;;;;;;;5005156;28;20282;-74
2023/10/24 04:20:51;;;;;;;18.97;17.17;;;;;;;;;;4978986;28;20658;-74
2023/10/24 04:23:19;;;;;;;18.20;16.40;;;;;;;;;;4995523;28;20244;-73
2023/10/24 04:25:48;;;;;;;18.70;16.90;;;;;;;;;;4980211;28;20222;-74
2023/10/24 04:28:13;;;;;;;18.10;16.23;;;;;;;;;;4969593;28;20237;-74
2023/10/24 04:30:45;;;;;;;17.93;16.30;;;;;;;;;;4977129;28;21241;-74
2023/10/24 04:33:17;;;;;;;18.47;16.60;;;;;;;;;;4988797;28;20225;-74
2023/10/24 04:35:50;;;;;;;18.47;16.73;;;;;;;;;;4981863;28;20261;-75
2023/10/24 04:38:19;;;;;;;18.80;17.03;;;;;;;;;;4998654;28;20261;-75
2023/10/24 04:40:45;;;;;;;20.30;18.20;;;;;;;;;;4978101;28;20223;-75
2023/10/24 04:43:10;;;;;;;19.03;17.33;;;;;;;;;;4981455;28;20217;-74
2023/10/24 04:45:38;;;;;;;17.87;16.27;;;;;;;;;;4950797;28;20231;-74
2023/10/24 04:48:04;;;;;;;19.83;18.13;;;;;;;;;;4986807;28;20232;-75
2023/10/24 04:50:38;;;;;;;19.43;17.77;;;;;;;;;;4972714;28;20227;-75
2023/10/24 04:53:08;;;;;;;18.33;16.70;;;;;;;;;;4984463;28;20615;-76
2023/10/24 04:55:39;;;;;;;19.40;17.50;;;;;;;;;;4981587;28;20291;-76
2023/10/24 04:58:05;;;;;;;19.77;17.97;;;;;;;;;;4999865;28;20705;-75
2023/10/24 05:00:31;;;;;;;21.27;19.37;;;;;;;;;;4997349;28;20757;-75
2023/10/24 05:02:59;;;;;;;20.73;18.83;;;;;;;;;;4997562;28;20221;-75
2023/10/24 05:05:27;;;;;;;21.80;19.87;;;;;;;;;;4994860;28;20718;-74
2023/10/24 05:07:57;;;;;;;21.07;19.20;;;;;;;;;;4968165;28;20267;-75
2023/10/24 05:10:27;;;;;;;21.57;19.57;;;;;;;;;;4985126;28;20217;-74
2023/10/24 05:12:53;;;;;;;21.03;19.17;;;;;;;;;;4980181;28;20340;-74
2023/10/24 05:15:21;;;;;;;22.00;19.57;;;;;;;;;;4982540;28;20228;-74
2023/10/24 05:17:54;;;;;;;23.40;17.97;;;;;;;;;;4989547;28;20586;-74
2023/10/24 05:20:20;;;;;;;20.87;19.07;;;;;;;;;;4997786;28;20353;-75
2023/10/24 05:22:47;;;;;;;19.57;17.80;;;;;;;;;;5005166;28;20217;-74
2023/10/24 05:25:16;;;;;;;20.50;18.60;;;;;;;;;;4988189;28;20229;-74
2023/10/24 05:27:44;;;;;;;20.13;18.17;;;;;;;;;;4965369;28;20247;-75
2023/10/24 05:30:10;;;;;;;19.63;18.07;;;;;;;;;;4969810;28;20710;-75
2023/10/24 05:32:38;;;;;;;20.30;18.17;;;;;;;;;;4986003;28;20311;-74
2023/10/24 05:35:04;;;;;;;20.57;18.67;;;;;;;;;;5006221;28;20217;-75
2023/10/24 05:37:31;;;;;;;20.07;18.27;;;;;;;;;;4968178;28;20288;-75
2023/10/24 05:39:57;;;;;;;19.80;17.43;;;;;;;;;;5016880;28;20682;-74
2023/10/24 05:42:27;;;;;;;19.47;17.53;;;;;;;;;;5003339;28;20224;-76
2023/10/24 05:44:57;;;;;;;19.73;17.87;;;;;;;;;;4990795;28;20212;-74
2023/10/24 05:47:27;;;;;;;18.57;16.87;;;;;;;;;;4997765;28;20248;-74
2023/10/24 05:49:55;;;;;;;17.93;16.17;;;;;;;;;;5004971;28;20225;-74
2023/10/24 05:52:21;;;;;;;18.87;17.17;;;;;;;;;;5000110;28;20535;-75
2023/10/24 05:54:46;;;;;;;17.90;16.30;;;;;;;;;;4991383;28;20225;-74
2023/10/24 05:57:12;;;;;;;18.10;16.50;;;;;;;;;;4975104;28;20604;-75
2023/10/24 05:59:39;;;;;;;16.93;15.43;;;;;;;;;;5017627;28;20861;-74
2023/10/24 06:02:05;;;;;;;17.73;16.10;;;;;;;;;;4991383;28;20216;-74
2023/10/24 06:04:36;;;;;;;17.90;16.30;;;;;;;;;;4992285;28;20224;-73
2023/10/24 06:07:07;;;;;;;17.23;15.70;;;;;;;;;;4992703;28;20228;-74
2023/10/24 06:09:32;;;;;;;16.03;14.63;;;;;;;;;;5002451;28;20225;-74
2023/10/24 06:11:58;;;;;;;18.13;16.33;;;;;;;;;;4997236;28;20287;-74
2023/10/24 06:14:23;;;;;;;16.97;15.37;;;;;;;;;;4983270;28;20228;-74
2023/10/24 06:16:49;;;;;;;16.93;15.20;;;;;;;;;;4968902;28;20224;-74
2023/10/24 06:19:15;;;;;;;17.43;15.03;;;;;;;;;;4985740;28;20225;-74
2023/10/24 06:21:43;;;;;;;17.40;15.60;;;;;;;;;;4989260;28;20236;-74
2023/10/24 06:24:13;;;;;;;16.00;14.67;;;;;;;;;;5012841;28;20212;-74
2023/10/24 06:26:38;;;;;;;16.37;14.87;;;;;;;;;;4990364;28;20237;-73
2023/10/24 06:29:04;;;;;;;15.67;14.07;;;;;;;;;;4995584;28;20666;-73
2023/10/24 06:31:34;;;;;;;16.67;15.23;;;;;;;;;;4980709;28;20232;-74
2023/10/24 06:34:01;;;;;;;17.07;15.27;;;;;;;;;;4995829;28;20946;-74
2023/10/24 06:36:26;;;;;;;16.07;14.67;;;;;;;;;;4996376;28;20259;-74
2023/10/24 06:38:56;;;;;;;15.70;14.07;;;;;;;;;;5000069;28;20630;-73
2023/10/24 06:41:27;;;;;;;15.30;13.77;;;;;;;;;;4985118;28;20218;-74
2023/10/24 06:43:57;;;;;;;15.30;14.00;;;;;;;;;;4995629;28;20292;-74
2023/10/24 06:46:24;;;;;;;14.53;13.20;;;;;;;;;;4998849;28;20278;-74
2023/10/24 06:48:52;;;;;;;16.80;12.90;;;;;;;;;;5015934;28;20211;-73
2023/10/24 06:51:18;;;;;;;15.33;13.73;;;;;;;;;;4987756;28;20705;-74
2023/10/24 06:53:43;;;;;;;15.13;13.67;;;;;;;;;;4997289;28;20229;-74
2023/10/24 06:56:14;;;;;;;14.17;12.90;;;;;;;;;;5000120;28;20220;-74
2023/10/24 06:58:40;;;;;;;16.37;13.37;;;;;;;;;;4998121;28;20225;-73
2023/10/24 07:01:06;;;;;;;14.20;12.87;;;;;;;;;;4974624;28;20271;-74
2023/10/24 07:03:31;;;;;;;14.90;12.63;;;;;;;;;;5017506;28;20221;-74
2023/10/24 07:05:59;;;;;;;13.77;12.63;;;;;;;;;;4988460;28;20717;-74
2023/10/24 07:08:27;;;;;;;13.13;11.97;;;;;;;;;;4997480;28;20309;-74
2023/10/24 07:10:52;;;;;;;12.83;11.70;;;;;;;;;;4985384;28;20209;-74
2023/10/24 07:13:23;;;;;;;13.80;12.50;;;;;;;;;;4996696;28;20236;-74
2023/10/24 07:15:50;;;;;;;13.50;12.37;;;;;;;;;;4999738;28;20220;-74
2023/10/24 07:18:16;;;;;;;13.20;12.00;;;;;;;;;;4980963;28;20667;-74
2023/10/24 07:20:44;;;;;;;15.40;13.07;;;;;;;;;;4985748;28;20212;-74
2023/10/24 07:23:12;;;;;;;12.57;11.53;;;;;;;;;;4998569;28;20213;-74
2023/10/24 07:25:37;;;;;;;13.13;11.90;;;;;;;;;;4973997;28;20222;-75
2023/10/24 07:28:05;;;;;;;14.43;12.13;;;;;;;;;;4990510;28;20762;-74
2023/10/24 07:30:33;;;;;;;12.03;10.97;;;;;;;;;;5006354;28;20233;-75
2023/10/24 07:33:05;;;;;;;12.13;11.03;;;;;;;;;;5000476;28;20597;-75
2023/10/24 07:35:32;;;;;;;22.40;15.03;;;;;;;;;;5005136;28;20527;-74
2023/10/24 07:37:57;;;;;;;14.50;13.10;;;;;;;;;;4974984;28;20713;-75
2023/10/24 07:40:28;;;;;;;11.80;10.70;;;;;;;;;;4996600;28;20224;-74
2023/10/24 07:42:54;;;;;;;11.63;10.17;;;;;;;;;;4981671;28;20297;-74
2023/10/24 07:45:19;;;;;;;11.30;10.20;;;;;;;;;;5003447;28;20594;-75
2023/10/24 07:47:47;;;;;;;11.57;10.10;;;;;;;;;;4958473;28;20232;-75
2023/10/24 07:50:17;;;;;;;11.43;10.00;;;;;;;;;;4996569;28;20706;-76
2023/10/24 07:52:48;;;;;;;11.43;10.20;;;;;;;;;;4998900;28;20769;-75
2023/10/24 07:55:14;;;;;;;11.30;10.13;;;;;;;;;;5004865;28;20223;-74
2023/10/24 07:57:39;;;;;;;9.50;8.60;;;;;;;;;;4983158;28;20225;-74
2023/10/24 08:00:09;;;;;;;11.17;8.67;;;;;;;;;;4982590;28;20636;-75
2023/10/24 08:02:37;;;;;;;12.80;8.80;;;;;;;;;;4998374;28;20239;-74
2023/10/24 08:05:03;;;;;;;8.80;8.00;;;;;;;;;;5005001;28;20733;-74
2023/10/24 08:07:37;;;;;;;8.97;8.07;;;;;;;;;;4998924;28;20221;-75
2023/10/24 08:10:10;;;;;;;10.40;8.63;;;;;;;;;;4951721;28;20225;-74
2023/10/24 08:12:38;;;;;;;9.20;7.73;;;;;;;;;;4987369;28;20316;-74
2023/10/24 08:15:06;;;;;;;8.87;7.93;;;;;;;;;;4989811;28;20216;-76
2023/10/24 08:17:31;;;;;;;8.90;8.00;;;;;;;;;;4986409;28;20229;-74
2023/10/24 08:19:57;;;;;;;8.43;7.60;;;;;;;;;;5004170;28;20244;-74
2023/10/24 08:22:22;;;;;;;9.13;7.20;;;;;;;;;;4998066;28;20224;-75
2023/10/24 08:24:50;;;;;;;7.60;6.90;;;;;;;;;;4981675;28;20221;-74
2023/10/24 08:27:18;;;;;;;9.17;7.30;;;;;;;;;;4996536;28;20220;-74
2023/10/24 08:29:46;;;;;;;6.67;6.10;;;;;;;;;;4983750;28;20236;-74
2023/10/24 08:32:11;;;;;;;9.43;7.17;;;;;;;;;;5010794;28;20337;-74
2023/10/24 08:34:39;;;;;;;7.07;6.20;;;;;;;;;;4972155;28;20229;-75
2023/10/24 08:37:05;;;;;;;7.27;6.57;;;;;;;;;;4999594;28;20706;-75
2023/10/24 08:39:33;;;;;;;10.17;6.57;;;;;;;;;;4983824;28;20224;-74
2023/10/24 08:42:01;;;;;;;7.00;6.10;;;;;;;;;;4995928;28;20258;-75
2023/10/24 08:44:26;;;;;;;7.13;6.20;;;;;;;;;;4956062;28;20217;-74
2023/10/24 08:46:52;;;;;;;8.07;6.13;;;;;;;;;;4990221;28;20781;-74
2023/10/24 08:49:18;;;;;;;7.10;5.80;;;;;;;;;;4996733;28;20276;-75
2023/10/24 08:51:45;;;;;;;8.33;6.10;;;;;;;;;;5012274;28;20233;-74
2023/10/24 08:54:13;;;;;;;8.53;5.63;;;;;;;;;;4985748;28;20220;-74
2023/10/24 08:56:41;;;;;;;6.77;5.43;;;;;;;;;;4993864;28;20226;-73
2023/10/24 08:59:11;;;;;;;5.80;5.30;;;;;;;;;;4998442;28;20250;-75
2023/10/24 09:01:37;;;;;;;10.40;5.07;;;;;;;;;;4973264;28;20237;-75
2023/10/24 09:04:05;;;;;;;7.63;5.40;;;;;;;;;;4985606;28;20826;-74
2023/10/24 09:06:34;;;;;;;5.93;5.33;;;;;;;;;;5009073;28;20610;-75
2023/10/24 09:09:00;;;;;;;6.77;5.00;;;;;;;;;;5017662;28;20229;-74
2023/10/24 09:12:00;;;;;;;5.40;4.60;;;;;;;;;;5006993;28;20236;-74
2023/10/24 09:14:28;;;;;;;6.03;4.73;;;;;;;;;;4992634;28;20300;-74
2023/10/24 09:17:00;;;;;;;5.57;4.93;;;;;;;;;;5002821;28;20217;-74
2023/10/24 09:19:26;;;;;;;5.70;5.10;;;;;;;;;;4984753;28;20214;-73
2023/10/24 09:21:56;;;;;;;5.97;4.87;;;;;;;;;;4966472;28;20217;-73
2023/10/24 09:24:29;;;;;;;5.13;4.27;;;;;;;;;;4988758;28;20224;-73
2023/10/24 09:27:02;;;;;;;5.00;4.50;;;;;;;;;;5000617;28;20242;-73
2023/10/24 09:29:31;;;;;;;5.13;4.50;;;;;;;;;;5004979;28;20693;-73
2023/10/24 09:32:02;;;;;;;4.87;3.87;;;;;;;;;;4990141;28;20237;-74
2023/10/24 09:34:35;;;;;;;4.72;4.10;;;;;;;;;;5003017;28;20226;-75
2023/10/24 09:37:10;;;;;;;5.13;4.47;;;;;;;;;;4985120;28;20233;-74
2023/10/24 09:39:58;;;;;;;5.30;4.40;;;;;;;;;;4995642;28;20232;-73
2023/10/24 09:42:31;;;;;;;5.20;3.47;;;;;;;;;;5008406;28;20278;-74
2023/10/24 09:45:00;;;;;;;5.17;4.10;;;;;;;;;;4990596;28;20232;-74
2023/10/24 09:47:27;;;;;;;4.37;3.93;;;;;;;;;;5017585;28;20221;-74
2023/10/24 09:49:55;;;;;;;4.93;3.43;;;;;;;;;;4987013;28;20296;-74
2023/10/24 09:52:23;;;;;;;4.10;3.70;;;;;;;;;;4998648;28;20225;-74
2023/10/24 09:54:50;;;;;;;5.68;3.95;;;;;;;;;;4996048;28;20301;-75
2023/10/24 09:57:21;;;;;;;4.03;3.58;;;;;;;;;;4989522;28;20228;-74
2023/10/24 09:59:55;;;;;;;4.20;3.60;;;;;;;;;;4989237;28;20301;-74
2023/10/24 10:02:22;;;;;;;4.43;3.47;;;;;;;;;;4984732;28;20244;-74
2023/10/24 10:04:50;;;;;;;6.40;3.60;;;;;;;;;;5019411;28;20216;-74
2023/10/24 10:07:16;;;;;;;4.43;3.43;;;;;;;;;;5003329;28;20359;-75
2023/10/24 10:09:47;;;;;;;4.10;3.60;;;;;;;;;;5002778;28;20260;-74
2023/10/24 10:12:17;;;;;;;4.10;3.57;;;;;;;;;;5017589;28;20232;-74
2023/10/24 10:14:57;;;;;;;8.80;3.40;;;;;;;;;;4976199;28;20231;-75
2023/10/24 10:17:48;;;;;;;7.72;3.60;;;;;;;;;;5017499;28;20228;-75
2023/10/24 10:20:30;;;;;;;3.92;3.30;;;;;;;;;;4971988;28;20218;-75
2023/10/24 10:23:27;;;;;;;5.65;3.13;;;;;;;;;;5002396;28;20235;-75
2023/10/24 10:26:21;;;;;;;7.13;3.57;;;;;;;;;;4997565;28;20225;-74
2023/10/24 10:29:12;;;;;;;3.50;3.03;;;;;;;;;;4988741;28;20220;-74
2023/10/24 10:31:52;;;;;;;3.73;3.27;;;;;;;;;;5000442;28;20603;-74
2023/10/24 10:34:20;;;;;;;2.97;2.57;;;;;;;;;;5016027;28;20719;-75
2023/10/24 10:36:55;;;;;;;3.47;3.17;;;;;;;;;;4987167;28;20718;-74
2023/10/24 10:39:26;;;;;;;3.47;3.00;;;;;;;;;;4999808;28;20229;-75
2023/10/24 10:41:51;;;;;;;3.83;2.93;;;;;;;;;;5001130;28;20222;-75
2023/10/24 10:44:41;;;;;;;3.13;2.83;;;;;;;;;;5000293;28;20222;-75
2023/10/24 10:47:11;;;;;;;8.13;4.07;;;;;;;;;;5001266;28;20225;-74
2023/10/24 10:49:44;;;;;;;3.00;2.80;;;;;;;;;;4987414;28;20227;-75
2023/10/24 10:52:28;;;;;;;3.65;2.90;;;;;;;;;;4998014;28;20233;-75
2023/10/24 10:55:04;;;;;;;4.78;2.97;;;;;;;;;;4990992;28;20229;-75
2023/10/24 10:57:31;;;;;;;3.55;3.05;;;;;;;;;;4989056;28;20221;-74
2023/10/24 11:00:08;;;;;;;3.25;2.78;;;;;;;;;;4990805;28;20257;-74
2023/10/24 11:02:58;;;;;;;3.25;2.95;;;;;;;;;;4981843;28;20224;-74
2023/10/24 11:05:41;;;;;;;2.97;2.40;;;;;;;;;;5001492;28;20221;-76
2023/10/24 11:08:07;;;;;;;5.67;2.73;;;;;;;;;;5002923;28;20229;-74
2023/10/24 11:11:00;;;;;;;3.40;2.57;;;;;;;;;;5001002;28;20271;-74
2023/10/24 11:13:38;;;;;;;2.67;2.47;;;;;;;;;;5005862;28;20228;-76
2023/10/24 11:16:07;;;;;;;4.03;2.60;;;;;;;;;;4999167;28;20229;-74
2023/10/24 11:18:38;;;;;;;2.90;2.53;;;;;;;;;;5001012;28;20738;-74
2023/10/24 11:21:12;;;;;;;3.83;2.77;;;;;;;;;;4989570;28;20236;-75
2023/10/24 11:23:41;;;;;;;3.05;2.50;;;;;;;;;;4984691;28;20346;-75
2023/10/24 11:26:11;;;;;;;5.20;3.15;;;;;;;;;;4989348;28;20228;-74
2023/10/24 11:28:39;;;;;;;3.90;2.67;;;;;;;;;;4978553;28;20234;-74
2023/10/24 11:31:24;;;;;;;3.60;2.33;;;;;;;;;;4984036;28;20222;-75
2023/10/24 11:33:52;;;;;;;3.03;2.38;;;;;;;;;;5005293;28;20240;-74
2023/10/24 11:36:20;;;;;;;3.92;2.40;;;;;;;;;;4999551;28;20317;-75
2023/10/24 11:38:46;;;;;;;2.88;2.17;;;;;;;;;;4969980;28;20224;-74
2023/10/24 11:41:15;;;;;;;4.68;2.20;;;;;;;;;;5000699;28;20254;-74
2023/10/24 11:43:47;;;;;;;3.10;2.40;;;;;;;;;;4999503;28;20225;-74
2023/10/24 11:46:13;;;;;;;3.23;2.53;;;;;;;;;;4983628;28;20280;-75
2023/10/24 11:48:41;;;;;;;3.60;2.30;;;;;;;;;;4983579;28;20230;-74
2023/10/24 11:51:07;;;;;;;3.08;2.20;;;;;;;;;;4973505;28;20236;-75
2023/10/24 11:53:37;;;;;;;2.40;2.20;;;;;;;;;;4969305;28;20316;-74
2023/10/24 11:56:06;;;;;;;6.40;2.63;;;;;;;;;;5000457;28;20311;-74
2023/10/24 11:58:32;;;;;;;4.73;2.10;;;;;;;;;;4998791;28;20709;-74
2023/10/24 12:00:58;;;;;;;4.57;2.47;;;;;;;;;;5013693;28;20229;-74
2023/10/24 12:03:24;;;;;;;3.80;2.08;;;;;;;;;;5002917;28;20737;-74
2023/10/24 12:05:51;;;;;;;5.00;2.40;;;;;;;;;;4969223;28;20225;-73
2023/10/24 12:08:24;;;;;;;5.30;2.70;;;;;;;;;;4997064;28;20225;-74
2023/10/24 12:10:53;;;;;;;4.60;2.25;;;;;;;;;;5013727;28;20268;-74
2023/10/24 12:13:20;;;;;;;5.28;2.33;;;;;;;;;;4980703;28;20243;-74
2023/10/24 12:15:46;;;;;;;3.77;2.00;;;;;;;;;;4968530;28;20221;-73
2023/10/24 12:18:14;;;;;;;3.15;2.13;;;;;;;;;;4992582;28;20322;-75
2023/10/24 12:20:42;;;;;;;2.30;1.98;;;;;;;;;;4996688;28;20272;-76
2023/10/24 12:23:08;;;;;;;3.45;2.08;;;;;;;;;;5012990;28;20280;-76
2023/10/24 12:25:33;;;;;;;2.25;1.67;;;;;;;;;;4998618;28;20228;-73
2023/10/24 12:28:01;;;;;;;2.23;1.50;;;;;;;;;;4998833;28;20232;-75
2023/10/24 12:30:31;;;;;;;2.25;1.75;;;;;;;;;;4997133;28;20279;-73
2023/10/24 12:32:59;;;;;;;4.18;2.13;;;;;;;;;;4997460;28;20480;-73
2023/10/24 12:35:27;;;;;;;2.17;1.70;;;;;;;;;;5002828;28;20344;-74
2023/10/24 12:37:58;;;;;;;4.27;2.10;;;;;;;;;;4966405;28;20692;-73
2023/10/24 12:40:26;;;;;;;2.00;1.70;;;;;;;;;;5002338;28;20287;-74
2023/10/24 12:42:54;;;;;;;3.40;2.25;;;;;;;;;;5002419;28;20226;-75
2023/10/24 12:45:23;;;;;;;1.77;1.67;;;;;;;;;;4986526;28;20278;-74
2023/10/24 12:47:49;;;;;;;2.47;1.73;;;;;;;;;;5003211;28;20321;-75
2023/10/24 12:50:15;;;;;;;2.65;1.60;;;;;;;;;;4966504;28;20250;-74
2023/10/24 12:52:42;;;;;;;2.85;1.75;;;;;;;;;;4972357;28;20253;-75
2023/10/24 12:55:09;;;;;;;1.67;1.40;;;;;;;;;;4973667;28;20220;-75
2023/10/24 12:57:37;;;;;;;2.55;1.30;;;;;;;;;;4992272;28;20224;-74
2023/10/24 13:00:05;;;;;;;4.97;1.75;;;;;;;;;;4970685;28;20225;-77
2023/10/24 13:02:33;;;;;;;2.35;1.30;;;;;;;;;;4987038;28;20283;-75
2023/10/24 13:04:58;;;;;;;1.35;1.10;;;;;;;;;;5003696;28;20223;-75
2023/10/24 13:07:27;;;;;;;2.50;1.70;;;;;;;;;;5002602;28;20578;-75
2023/10/24 13:09:57;;;;;;;4.20;1.52;;;;;;;;;;5002327;28;20257;-75
2023/10/24 13:12:25;;;;;;;3.28;1.42;;;;;;;;;;4980809;28;20309;-75
2023/10/24 13:14:50;;;;;;;2.35;1.67;;;;;;;;;;4984858;28;20221;-77
2023/10/24 13:17:16;;;;;;;1.42;1.33;;;;;;;;;;5005398;28;20230;-76
2023/10/24 13:19:42;;;;;;;4.40;2.08;;;;;;;;;;4984887;28;20241;-76
2023/10/24 13:22:07;;;;;;;2.20;2.00;;;;;;;;;;4989694;28;20209;-76
2023/10/24 13:24:33;;;;;;;3.28;2.22;;;;;;;;;;4993510;28;20594;-75
2023/10/24 13:27:00;;;;;;;8.18;2.88;;;;;;;;;;4988295;28;20658;-75
2023/10/24 13:29:25;;;;;;;7.33;2.30;;;;;;;;;;5001519;28;20213;-77
2023/10/24 13:31:55;;;;;;;2.27;2.00;;;;;;;;;;4985714;28;20224;-77
2023/10/24 13:34:22;;;;;;;2.92;2.20;;;;;;;;;;5011014;28;20221;-77
2023/10/24 13:36:48;;;;;;;6.03;2.50;;;;;;;;;;5005388;28;20232;-77
2023/10/24 13:39:14;;;;;;;5.13;2.33;;;;;;;;;;4976174;28;20232;-78
2023/10/24 13:41:40;;;;;;;2.53;2.10;;;;;;;;;;4991070;28;20224;-78
2023/10/24 13:44:09;;;;;;;3.70;1.87;;;;;;;;;;4986790;28;20225;-76
2023/10/24 13:46:39;;;;;;;2.70;2.20;;;;;;;;;;5000902;28;20225;-76
2023/10/24 13:49:10;;;;;;;2.20;2.00;;;;;;;;;;4990797;28;20223;-76
2023/10/24 13:51:36;;;;;;;2.88;2.30;;;;;;;;;;5014508;28;20255;-76
2023/10/24 13:54:04;;;;;;;7.23;2.23;;;;;;;;;;5003603;28;20299;-76
2023/10/24 13:56:33;;;;;;;4.25;2.60;;;;;;;;;;4969399;28;20248;-77
2023/10/24 13:59:00;;;;;;;2.78;2.08;;;;;;;;;;5003178;28;20239;-78
2023/10/24 14:01:29;;;;;;;4.28;2.20;;;;;;;;;;4971806;28;20598;-77
2023/10/24 14:03:54;;;;;;;3.08;2.22;;;;;;;;;;5016856;28;20220;-77
2023/10/24 14:06:22;;;;;;;3.95;2.35;;;;;;;;;;5016387;28;20235;-77
2023/10/24 14:08:50;;;;;;;4.03;2.05;;;;;;;;;;4982309;28;21089;-78
2023/10/24 14:11:17;;;;;;;2.42;2.15;;;;;;;;;;4998495;28;20218;-77
2023/10/24 14:13:47;;;;;;;2.35;2.20;;;;;;;;;;4971397;28;20241;-77
2023/10/24 14:16:15;;;;;;;7.55;2.97;;;;;;;;;;5001796;28;20241;-77
2023/10/24 14:18:41;;;;;;;7.93;2.53;;;;;;;;;;4982589;28;20643;-77
2023/10/24 14:21:06;;;;;;;5.03;2.20;;;;;;;;;;4985708;28;20224;-76
2023/10/24 14:23:32;;;;;;;3.83;2.20;;;;;;;;;;5003448;28;20225;-77
2023/10/24 14:26:03;;;;;;;3.00;2.30;;;;;;;;;;4973619;28;20224;-77
2023/10/24 14:28:30;;;;;;;5.37;2.77;;;;;;;;;;4999614;28;21138;-77
2023/10/24 14:30:55;;;;;;;3.07;2.37;;;;;;;;;;4982577;28;20296;-78
2023/10/24 14:33:23;;;;;;;6.10;2.60;;;;;;;;;;5017132;28;20779;-78
2023/10/24 14:35:49;;;;;;;3.40;2.53;;;;;;;;;;4987803;28;20232;-76
2023/10/24 14:38:14;;;;;;;3.38;2.50;;;;;;;;;;5002429;28;20229;-78
2023/10/24 14:40:45;;;;;;;4.90;4.50;;;;;;;;;;5006453;28;20225;-78
2023/10/24 14:43:10;;;;;;;3.67;2.63;;;;;;;;;;4978068;28;20304;-78